Latest Weather Observations for Hopetoun North

IDW60801

Issued at 10:03 pm WST Saturday 25 May 2019 (issued every 10 minutes, with the page automatically refreshed every 10 minutes)

About weather observations | Map of weather stations | Latest weather observations for WA | Other Formats
Station Details ID: 009961 Name: HOPETOUN NORTH Lat: -33.93 Lon: 120.13 Height: 26.0 m
Data from the previous 72 hours. | See also: Recent months at Hopetoun North
Date/Time
WST
Temp
°C
App
Temp
°C
Dew
Point
°C
Rel
Hum
%
Delta-T
°C
Wind Press
QNH
hPa
Press
MSL
hPa
Rain since
9am
mm
Dir  Spd
km/h
Gust
km/h
Spd
kts
Gust
kts
25/10:00pm 13.8 12.9 10.6 81 1.7 N 6 7 3 4 1026.1 1026.1 0.8
25/09:30pm 13.7 12.9 10.9 83 1.5 NW 6 7 3 4 1026.3 1026.3 0.8
25/09:00pm 13.9 13.4 10.9 82 1.6 NNW 4 6 2 3 1026.3 1026.3 0.8
25/08:30pm 13.9 13.1 10.9 82 1.6 NNW 6 7 3 4 1026.3 1026.3 0.8
25/08:00pm 14.2 13.6 10.4 78 2.0 NE 4 7 2 4 1026.1 1026.1 0.8
25/07:30pm 14.2 13.7 10.8 80 1.8 NNE 4 6 2 3 1025.8 1025.8 0.8
25/07:00pm 14.1 13.6 10.9 81 1.7 ENE 4 6 2 3 1025.6 1025.6 0.8
25/06:30pm 14.4 13.5 10.8 79 1.9 E 6 6 3 3 1025.6 1025.6 0.8
25/06:00pm 14.6 13.5 10.8 78 2.0 ESE 7 11 4 6 1025.4 1025.4 0.8
25/05:30pm 14.8 14.0 11.0 78 2.0 SSE 6 11 3 6 1025.2 1025.1 0.8
25/05:00pm 15.0 14.0 11.0 77 2.1 SE 7 11 4 6 1024.9 1024.8 0.8
25/04:30pm 15.4 14.3 10.8 74 2.4 SE 7 11 4 6 1025.1 1025.0 0.8
25/04:00pm 15.7 14.8 10.7 72 2.6 SSE 6 7 3 4 1024.9 1024.8 0.8
25/03:30pm 15.7 14.6 9.8 68 3.1 SSE 6 7 3 4 1024.7 1024.6 0.8
25/03:00pm 16.1 15.0 10.0 67 3.2 S 6 9 3 5 1024.6 1024.5 0.8
25/02:30pm 16.2 15.1 9.8 66 3.3 SSE 6 11 3 6 1024.5 1024.4 0.8
25/02:00pm 15.6 14.0 10.2 70 2.8 S 9 15 5 8 1024.6 1024.5 0.8
25/01:30pm 15.2 13.5 12.3 83 1.6 SSW 13 20 7 11 1024.8 1024.7 0.8
25/01:00pm 16.1 14.4 12.5 79 2.0 S 13 19 7 10 1025.0 1024.9 0.8
25/12:30pm 16.1 14.8 11.1 72 2.7 SW 9 24 5 13 1025.1 1025.0 0.8
25/12:00pm 15.4 14.6 11.8 79 1.9 WSW 7 9 4 5 1025.4 1025.4 0.8
25/11:30am 15.3 14.9 12.4 83 1.6 SSE 6 7 3 4 1025.7 1025.7 0.8
25/11:00am 14.6 13.3 12.6 88 1.1 SW 11 15 6 8 1025.9 1025.9 0.8
25/10:30am 15.1 14.9 13.0 87 1.2 SSW 6 9 3 5 1026.0 1026.0 0.8
25/10:00am 14.3 14.2 13.8 97 0.3 WSW 7 9 4 5 1026.1 1026.1 0.8
25/09:30am 14.2 14.3 14.0 99 0.1 WSW 6 9 3 5 1026.1 1026.1 0.8
25/09:00am 13.8 13.7 13.8 100 0.0 W 7 15 4 8 1026.0 1026.0 2.6
25/08:30am 13.9 13.0 13.7 99 0.1 SW 11 17 6 9 1025.7 1025.7 2.0
25/08:00am 13.6 14.0 13.6 100 0.0 WSW 4 7 2 4 1025.3 1025.2 2.0
25/07:30am 13.2 12.9 13.2 100 0.0 WSW 7 9 4 5 1024.9 1024.8 1.8
25/07:00am 13.2 13.8 13.0 99 0.1 WSW 2 6 1 3 1024.6 1024.5 1.6
25/06:30am 13.2 11.9 12.6 96 0.3 WSW 11 15 6 8 1024.3 1024.2 0.0
25/06:00am 12.0 10.7 11.2 95 0.4 W 9 11 5 6 1023.9 1023.8 0.0
25/05:30am 12.4 11.3 11.8 96 0.3 WNW 9 13 5 7 1023.9 1023.8 0.0
25/05:00am 11.7 10.7 11.1 96 0.3 NW 7 13 4 7 1023.8 1023.7 0.0
25/04:30am 11.7 10.7 11.1 96 0.3 NW 7 11 4 6 1023.6 1023.5 0.0
25/04:00am 12.3 11.7 11.8 97 0.3 NW 6 11 3 6 1023.5 1023.4 0.0
25/03:30am 12.6 11.9 12.1 97 0.3 WNW 7 11 4 6 1023.5 1023.4 0.0
25/03:00am 13.8 12.4 13.5 98 0.2 WSW 13 22 7 12 1023.5 1023.4 0.0
25/02:30am 14.0 11.4 13.2 95 0.4 SW 19 28 10 15 1023.6 1023.5 0.0
25/02:00am 13.6 12.3 11.3 86 1.2 W 9 15 5 8 1023.6 1023.5 0.0
25/01:30am 13.7 12.2 11.9 89 1.0 WSW 11 17 6 9 1023.4 1023.3 0.0
25/01:00am 14.7 13.0 12.4 86 1.2 WSW 13 20 7 11 1023.2 1023.1 0.0
25/12:30am 15.3 13.6 12.4 83 1.6 WSW 13 22 7 12 1023.2 1023.1 0.0
25/12:00am 15.4 12.9 12.2 81 1.7 WSW 17 26 9 14 1023.0 1022.9 0.0
 
Date/Time
WST
Temp
°C
App
Temp
°C
Dew
Point
°C
Rel
Hum
%
Delta-T
°C
Wind Press
QNH
hPa
Press
MSL
hPa
Rain since
9am
mm
Dir  Spd
km/h
Gust
km/h
Spd
kts
Gust
kts
24/11:30pm 15.6 13.3 11.8 78 2.1 WSW 15 24 8 13 1022.9 1022.8 0.0
24/11:00pm 16.0 14.1 11.8 76 2.3 WSW 13 20 7 11 1022.8 1022.7 0.0
24/10:30pm 16.4 13.8 12.0 75 2.4 WSW 17 24 9 13 1022.9 1022.8 0.0
24/10:00pm 16.7 14.5 12.0 74 2.6 WSW 15 22 8 12 1022.9 1022.8 0.0
24/09:30pm 17.0 15.1 13.1 78 2.2 WSW 15 22 8 12 1022.8 1022.7 0.0
24/09:00pm 17.0 14.7 12.9 77 2.3 SW 17 24 9 13 1022.7 1022.6 0.0
24/08:30pm 17.1 14.4 13.0 77 2.3 SW 19 26 10 14 1022.6 1022.5 0.0
24/08:00pm 17.2 14.6 13.1 77 2.3 SW 19 26 10 14 1022.5 1022.4 0.0
24/07:30pm 17.1 14.5 13.2 78 2.2 SW 19 28 10 15 1022.3 1022.2 0.0
24/07:00pm 17.3 15.8 13.0 76 2.4 SW 13 24 7 13 1022.1 1022.0 0.0
24/06:30pm 17.1 15.4 12.6 75 2.5 SSW 13 20 7 11 1021.8 1021.7 0.0
24/06:00pm 16.9 14.9 12.8 77 2.3 SW 15 20 8 11 1021.7 1021.6 0.0
24/05:30pm 16.4 15.6 12.9 80 1.9 SSW 9 11 5 6 1021.3 1021.2 0.0
24/05:00pm 17.0 16.8 12.9 77 2.3 WSW 6 9 3 5 1021.3 1021.2 0.0
24/04:30pm 17.3 16.8 12.8 75 2.5 SW 7 9 4 5 1021.2 1021.1 0.0
24/04:00pm 17.8 16.6 12.7 72 2.8 SSW 11 17 6 9 1020.9 1020.8 0.0
24/03:30pm 18.2 16.2 12.6 70 3.1 SSW 15 20 8 11 1020.7 1020.6 0.0
24/03:00pm 17.9 15.5 12.6 71 2.9 SSW 17 22 9 12 1020.5 1020.4 0.0
24/02:30pm 18.7 16.3 12.5 67 3.5 SSW 17 24 9 13 1020.3 1020.2 0.0
24/02:00pm 19.4 16.4 10.7 57 4.7 SSW 17 22 9 12 1020.3 1020.2 0.0
24/01:30pm 19.5 16.5 10.8 57 4.7 SW 17 22 9 12 1020.4 1020.3 0.0
24/01:00pm 19.6 16.8 11.4 59 4.5 SW 17 22 9 12 1020.3 1020.2 0.0
24/12:30pm 19.5 16.5 11.8 61 4.3 SW 19 24 10 13 1020.7 1020.6 0.0
24/12:00pm 19.8 16.8 12.1 61 4.3 WSW 19 28 10 15 1021.2 1021.1 0.0
24/11:30am 17.7 15.0 11.7 68 3.3 WSW 17 28 9 15 1021.7 1021.6 0.0
24/11:00am 18.5 15.7 11.3 63 3.9 WSW 17 30 9 16 1021.9 1021.8 0.0
24/10:30am 18.4 15.3 11.7 65 3.7 WSW 19 30 10 16 1022.0 1021.9 0.0
24/10:00am 17.6 14.3 11.6 68 3.3 W 20 28 11 15 1021.9 1021.8 0.0
24/09:30am 16.8 13.7 11.5 71 2.9 W 19 28 10 15 1021.9 1021.8 0.0
24/09:00am 16.0 13.2 11.2 73 2.6 W 17 30 9 16 1022.0 1021.9 0.0
24/08:30am 15.0 13.6 11.0 77 2.1 NW 9 15 5 8 1022.0 1021.9 0.0
24/08:00am 14.0 12.1 10.6 80 1.8 WNW 11 17 6 9 1021.7 1021.6 0.0
24/07:30am 12.9 11.0 10.6 86 1.2 W 11 17 6 9 1021.5 1021.4 0.0
24/07:00am 12.5 10.1 10.2 86 1.2 W 13 22 7 12 1021.6 1021.5 0.0
24/06:30am 12.4 10.0 10.0 85 1.2 WNW 13 20 7 11 1021.6 1021.5 0.0
24/06:00am 12.2 10.1 9.6 84 1.3 W 11 19 6 10 1021.6 1021.5 0.0
24/05:30am 11.8 10.0 9.4 85 1.2 W 9 13 5 7 1021.5 1021.4 0.0
24/05:00am 11.9 9.7 9.5 85 1.2 W 11 17 6 9 1021.3 1021.2 0.0
24/04:30am 11.4 9.9 9.3 87 1.1 W 7 13 4 7 1021.2 1021.1 0.0
24/04:00am 11.6 10.2 9.5 87 1.1 WNW 7 11 4 6 1021.1 1021.0 0.0
24/03:30am 11.9 9.7 9.5 85 1.2 W 11 17 6 9 1021.2 1021.1 0.0
24/03:00am 12.9 10.5 9.9 82 1.5 W 13 22 7 12 1021.1 1021.0 0.0
24/02:30am 13.2 10.0 9.8 80 1.7 W 17 24 9 13 1021.1 1021.0 0.0
24/02:00am 12.5 10.6 9.1 80 1.7 WNW 9 13 5 7 1021.2 1021.1 0.0
24/01:30am 12.2 10.3 9.0 81 1.6 W 9 13 5 7 1021.2 1021.1 0.0
24/01:00am 11.8 10.7 8.3 79 1.7 W 4 9 2 5 1021.2 1021.1 0.0
24/12:30am 12.4 11.6 8.3 76 2.0 NNW 2 7 1 4 1021.2 1021.1 0.0
24/12:00am 12.5 10.9 8.2 75 2.1 NNW 6 9 3 5 1021.4 1021.3 0.0
 
Date/Time
WST
Temp
°C
App
Temp
°C
Dew
Point
°C
Rel
Hum
%
Delta-T
°C
Wind Press
QNH
hPa
Press
MSL
hPa
Rain since
9am
mm
Dir  Spd
km/h
Gust
km/h
Spd
kts
Gust
kts
23/11:30pm 13.3 11.7 8.6 73 2.4 WNW 7 15 4 8 1021.5 1021.4 0.0
23/11:00pm 12.8 10.5 9.1 78 1.9 WNW 11 15 6 8 1021.5 1021.4 0.0
23/10:30pm 12.3 10.3 8.8 79 1.7 WNW 9 13 5 7 1021.7 1021.6 0.0
23/10:00pm 11.8 9.9 7.7 76 2.0 N 7 11 4 6 1021.6 1021.5 0.0
23/09:30pm 12.1 10.4 8.2 77 1.9 N 7 9 4 5 1021.7 1021.6 0.0
23/09:00pm 12.4 10.4 8.7 78 1.8 NNW 9 11 5 6 1021.8 1021.7 0.0
23/08:30pm 12.2 10.8 9.4 83 1.4 NNW 7 11 4 6 1021.8 1021.7 0.0
23/08:00pm 12.4 11.7 10.1 86 1.2 NNE 4 6 2 3 1021.8 1021.7 0.0
23/07:30pm 13.1 12.1 11.0 87 1.1 NNE 7 9 4 5 1021.7 1021.6 0.0
23/07:00pm 12.6 12.7 10.3 86 1.2 CALM 0 0 0 0 1021.5 1021.4 0.0
23/06:30pm 14.5 15.1 11.8 84 1.5 CALM 0 0 0 0 1021.2 1021.1 0.0
23/06:00pm 15.8 15.3 12.0 78 2.1 NE 6 6 3 3 1021.1 1021.0 0.0
23/05:30pm 16.1 16.0 12.1 77 2.2 NE 4 7 2 4 1021.0 1020.9 0.0
23/05:00pm 17.1 17.6 11.6 70 3.0 CALM 0 0 0 0 1020.8 1020.7 0.0
23/04:30pm 18.3 18.3 11.1 63 3.9 SSE 2 4 1 2 1021.0 1020.9 0.0
23/04:00pm 18.8 18.3 12.1 65 3.7 S 6 7 3 4 1020.9 1020.8 0.0
23/03:30pm 19.0 18.3 12.0 64 3.9 S 7 11 4 6 1020.8 1020.7 0.0
23/03:00pm 19.6 18.9 11.9 61 4.3 SSW 7 11 4 6 1020.7 1020.6 0.0
23/02:30pm 20.0 18.2 11.0 56 4.9 SW 11 15 6 8 1020.7 1020.6 0.0
23/02:00pm 19.3 17.1 10.8 58 4.6 SW 13 19 7 10 1020.6 1020.5 0.0
23/01:30pm 19.0 16.6 10.0 56 4.8 SW 13 17 7 9 1020.6 1020.5 0.0
23/01:00pm 19.4 17.2 10.9 58 4.6 SW 13 17 7 9 1020.7 1020.6 0.0
23/12:30pm 19.1 17.0 11.2 60 4.3 SW 13 20 7 11 1021.2 1021.1 0.0
23/12:00pm 19.8 16.9 11.0 57 4.8 WSW 17 26 9 14 1021.5 1021.4 0.0
23/11:30am 19.3 15.9 10.6 57 4.7 W 19 26 10 14 1021.9 1021.8 0.0
23/11:00am 18.9 15.9 10.7 59 4.4 W 17 26 9 14 1022.3 1022.2 0.0
23/10:30am 17.0 14.7 10.4 65 3.5 WNW 13 20 7 11 1022.3 1022.2 0.0
23/10:00am 15.0 12.9 9.6 70 2.8 WNW 11 19 6 10 1022.6 1022.5 0.0
23/09:30am 14.8 12.7 9.6 71 2.7 WNW 11 15 6 8 1022.6 1022.5 0.0
23/09:00am 13.8 11.5 9.0 73 2.4 NW 11 17 6 9 1022.6 1022.5 0.0
23/08:30am 12.9 11.5 8.8 76 2.1 NW 6 9 3 5 1022.2 1022.1 0.0
23/08:00am 11.5 9.8 8.4 81 1.5 NNW 7 9 4 5 1021.6 1021.5 0.0
23/07:30am 10.7 8.5 7.9 83 1.4 NNW 9 11 5 6 1021.4 1021.3 0.0
23/07:00am 11.0 9.2 8.1 82 1.4 NNW 7 9 4 5 1021.0 1020.9 0.0
23/06:30am 11.3 9.1 8.0 80 1.6 NW 9 13 5 7 1020.8 1020.7 0.0
23/06:00am 11.1 8.9 8.0 81 1.5 NW 9 13 5 7 1020.8 1020.7 0.0
23/05:30am 11.0 9.3 7.7 80 1.6 NNW 6 6 3 3 1020.5 1020.4 0.0
23/05:00am 11.2 9.4 7.3 77 1.9 NNW 6 7 3 4 1020.4 1020.3 0.0
23/04:30am 11.5 9.2 7.4 76 2.0 NNW 9 9 5 5 1020.2 1020.1 0.0
23/04:00am 12.1 9.8 7.6 74 2.2 NW 9 13 5 7 1020.6 1020.5 0.0
23/03:30am 12.3 10.1 7.8 74 2.2 NW 9 11 5 6 1020.3 1020.2 0.0
23/03:00am 11.9 9.8 8.4 79 1.7 NW 9 11 5 6 1020.4 1020.3 0.0
23/02:30am 11.4 9.3 8.3 81 1.5 NNW 9 11 5 6 1020.3 1020.2 0.0
23/02:00am 11.9 10.4 8.6 80 1.6 NNW 6 7 3 4 1020.3 1020.2 0.0
23/01:30am 12.4 10.8 8.7 78 1.8 NNW 7 9 4 5 1020.7 1020.6 0.0
23/01:00am 12.2 10.6 8.7 79 1.7 NNW 7 9 4 5 1020.5 1020.4 0.0
23/12:30am 12.2 10.7 9.0 81 1.6 NNW 7 11 4 6 1020.7 1020.6 0.0
23/12:00am 11.7 10.2 9.1 84 1.3 N 7 9 4 5 1020.8 1020.7 0.0
 
Date/Time
WST
Temp
°C
App
Temp
°C
Dew
Point
°C
Rel
Hum
%
Delta-T
°C
Wind Press
QNH
hPa
Press
MSL
hPa
Rain since
9am
mm
Dir  Spd
km/h
Gust
km/h
Spd
kts
Gust
kts
22/11:30pm 11.4 10.0 9.0 85 1.2 NNW 6 9 3 5 1020.6 1020.5 0.0
22/11:00pm 11.7 10.2 9.3 85 1.2 N 7 9 4 5 1020.7 1020.6 0.0
22/10:30pm 12.1 10.6 9.3 83 1.4 NNE 7 9 4 5 1020.5 1020.4 0.0

Other formats

Comma delimited format used in spreadsheet applications
http://www.bom.gov.au/fwo/IDW60801/IDW60801.95635.axf

JavaScript Object Notation format (JSON) in row-major order
http://www.bom.gov.au/fwo/IDW60801/IDW60801.95635.json

Data quality

Most of these data are generated automatically and are frequently updated. Quality checks on data are not normally performed. It is possible for incorrect values to appear. Refer to information at About Latest Weather Observations and please check the disclaimer before using these data.